Time;durP1;ratioP1;P1;durP2;ratioP2;P2;SDS_P1;SDS_P2;PMS_P1;PMS_P2;Temp;Humidity;BMP_temperature;BMP_pressure;BME280_temperature;BME280_humidity;BME280_pressure;Samples;Min_cycle;Max_cycle;Signal;HPM_P1;HPM_P2
2022/10/09 00:01:07;;;;;;;10.75;3.75;;;;;;;10.62;66.93;100012.00;5074478;28;20923;-61
2022/10/09 00:03:34;;;;;;;9.20;3.15;;;;;;;10.58;67.03;100010.50;5074635;28;20064;-60
2022/10/09 00:06:00;;;;;;;6.70;3.50;;;;;;;10.55;67.15;100006.28;5074808;28;20103;-61
2022/10/09 00:08:25;;;;;;;8.30;3.72;;;;;;;10.52;66.87;100006.50;5074365;28;20566;-59
2022/10/09 00:10:51;;;;;;;8.55;3.20;;;;;;;10.54;67.46;100009.06;5073336;28;20032;-60
2022/10/09 00:13:17;;;;;;;10.07;3.42;;;;;;;10.51;67.27;100004.81;5074574;28;20035;-56
2022/10/09 00:15:44;;;;;;;7.60;3.40;;;;;;;10.37;67.51;99976.41;5074318;28;20025;-58
2022/10/09 00:18:12;;;;;;;10.65;3.55;;;;;;;10.50;67.33;99994.19;5072938;28;20036;-58
2022/10/09 00:20:40;;;;;;;10.30;3.40;;;;;;;10.57;67.23;100000.78;5074225;28;20146;-60
2022/10/09 00:23:05;;;;;;;8.57;3.28;;;;;;;10.59;67.50;99988.13;5074184;28;20521;-60
2022/10/09 00:25:32;;;;;;;10.32;3.45;;;;;;;10.62;67.09;99998.63;5074651;28;20043;-59
2022/10/09 00:27:58;;;;;;;8.23;3.35;;;;;;;10.65;66.88;99987.66;5073993;28;20050;-60
2022/10/09 00:30:24;;;;;;;6.82;3.17;;;;;;;10.66;66.88;99975.97;5073779;28;20044;-59
2022/10/09 00:32:50;;;;;;;7.60;3.10;;;;;;;10.72;66.92;99979.97;5074347;28;20028;-61
2022/10/09 00:35:15;;;;;;;9.02;3.10;;;;;;;10.76;66.51;99978.78;5074160;28;20029;-61
2022/10/09 00:37:41;;;;;;;9.15;3.42;;;;;;;10.77;66.41;99978.66;5073625;28;20040;-62
2022/10/09 00:40:07;;;;;;;8.73;3.17;;;;;;;10.85;66.13;99982.53;5073902;28;20047;-60
2022/10/09 00:42:32;;;;;;;9.40;3.60;;;;;;;10.86;65.84;99970.88;5074526;28;20404;-59
2022/10/09 00:45:00;;;;;;;9.30;3.30;;;;;;;10.96;66.04;99977.19;5073763;28;20085;-59
2022/10/09 00:47:40;;;;;;;6.18;2.88;;;;;;;10.95;66.18;99969.25;5073302;28;20182;-61
2022/10/09 00:50:14;;;;;;;9.85;3.47;;;;;;;10.90;66.49;99964.28;5073899;28;20487;-61
2022/10/09 00:52:40;;;;;;;6.85;3.22;;;;;;;10.80;66.32;99958.81;5074194;28;20071;-61
2022/10/09 00:55:08;;;;;;;14.07;3.47;;;;;;;10.76;66.60;99963.56;5073833;28;20036;-62
2022/10/09 00:57:34;;;;;;;8.98;3.13;;;;;;;10.72;66.65;99958.56;5073411;28;20173;-61
2022/10/09 01:00:03;;;;;;;11.50;3.17;;;;;;;10.75;66.72;99956.50;5073620;28;20442;-61
2022/10/09 01:02:29;;;;;;;10.25;3.10;;;;;;;10.68;66.76;99955.28;5073525;28;20117;-61
2022/10/09 01:04:54;;;;;;;9.82;3.05;;;;;;;10.67;67.01;99952.72;5073548;28;20993;-61
2022/10/09 01:07:38;;;;;;;7.15;3.40;;;;;;;10.74;66.93;99959.31;5072924;28;20024;-60
2022/10/09 01:10:12;;;;;;;11.30;3.38;;;;;;;10.62;67.25;99966.47;5073544;28;20032;-62
2022/10/09 01:13:01;;;;;;;7.90;3.13;;;;;;;10.71;66.99;99968.44;5073477;28;20080;-62
2022/10/09 01:15:32;;;;;;;10.93;3.20;;;;;;;10.66;66.81;99962.59;5073156;28;20040;-60
2022/10/09 01:18:19;;;;;;;7.97;3.17;;;;;;;10.60;67.21;99969.28;5072602;28;20115;-61
2022/10/09 01:20:50;;;;;;;8.05;2.85;;;;;;;10.61;66.96;99967.47;5073336;28;20050;-60
2022/10/09 01:23:31;;;;;;;10.77;3.08;;;;;;;10.59;67.11;99964.03;5071908;28;20032;-62
2022/10/09 01:26:15;;;;;;;8.43;3.00;;;;;;;10.55;67.28;99957.22;5072854;28;20113;-61
2022/10/09 01:28:45;;;;;;;7.07;2.70;;;;;;;10.50;67.09;99948.69;5072690;28;20041;-61
2022/10/09 01:31:12;;;;;;;7.82;2.60;;;;;;;10.58;67.28;99948.94;5072825;28;20033;-61
2022/10/09 01:33:38;;;;;;;8.40;3.40;;;;;;;10.59;67.24;99956.84;5072928;28;20028;-62
2022/10/09 01:36:07;;;;;;;8.32;3.28;;;;;;;10.63;66.83;99961.00;5072885;28;20098;-60
2022/10/09 01:38:33;;;;;;;8.50;2.80;;;;;;;10.59;67.12;99956.84;5072608;28;20056;-60
2022/10/09 01:41:02;;;;;;;9.65;3.10;;;;;;;10.63;66.96;99955.63;5072809;28;20028;-61
2022/10/09 01:43:28;;;;;;;7.32;3.00;;;;;;;10.59;67.15;99943.47;5072735;28;20033;-60
2022/10/09 01:46:29;;;;;;;9.38;3.28;;;;;;;10.65;66.83;99939.47;5071776;28;20035;-61
2022/10/09 01:49:12;;;;;;;10.35;3.20;;;;;;;10.63;66.96;99949.44;5072548;28;20032;-60
2022/10/09 01:52:07;;;;;;;7.35;3.17;;;;;;;10.65;66.64;99952.84;5072577;28;20354;-65
2022/10/09 01:54:35;;;;;;;10.18;3.20;;;;;;;10.50;67.16;99948.69;5063246;28;20044;-58
2022/10/09 01:57:04;;;;;;;7.10;3.13;;;;;;;10.50;67.03;99935.31;5072501;28;20136;-57
2022/10/09 01:59:35;;;;;;;12.00;3.30;;;;;;;10.35;67.34;99919.44;5071909;28;20062;-56
2022/10/09 02:02:01;;;;;;;9.55;3.17;;;;;;;10.41;67.44;99945.78;5072564;28;20052;-56
2022/10/09 02:04:29;;;;;;;12.32;3.75;;;;;;;10.38;67.32;99948.66;5072372;28;20441;-57
2022/10/09 02:06:55;;;;;;;11.25;3.58;;;;;;;10.32;67.72;99949.13;5071295;28;20076;-56
2022/10/09 02:09:22;;;;;;;9.38;3.50;;;;;;;10.29;67.86;99944.00;5072560;28;20182;-60
2022/10/09 02:11:53;;;;;;;5.88;2.72;;;;;;;10.28;67.97;99942.31;5072500;28;20021;-60
2022/10/09 02:14:18;;;;;;;10.18;2.95;;;;;;;10.20;68.21;99933.06;5072486;28;20033;-59
2022/10/09 02:16:50;;;;;;;6.38;3.00;;;;;;;10.05;68.18;99907.47;5072048;28;20094;-61
2022/10/09 02:19:20;;;;;;;6.10;2.88;;;;;;;10.25;68.07;99926.50;5072287;28;20055;-61
2022/10/09 02:21:52;;;;;;;11.85;3.53;;;;;;;10.24;68.14;99930.13;5072476;28;20029;-57
2022/10/09 02:24:20;;;;;;;6.97;3.05;;;;;;;10.19;68.25;99935.84;5072419;28;20029;-59
2022/10/09 02:26:46;;;;;;;6.28;3.15;;;;;;;10.14;67.97;99928.19;5072038;28;20037;-58
2022/10/09 02:29:13;;;;;;;8.77;3.30;;;;;;;10.07;68.41;99929.63;5072390;28;20051;-57
2022/10/09 02:31:41;;;;;;;9.55;3.00;;;;;;;9.91;68.47;99890.69;5072335;28;20051;-62
2022/10/09 02:34:18;;;;;;;10.52;3.03;;;;;;;10.16;68.46;99936.94;5071864;28;20474;-61
2022/10/09 02:36:44;;;;;;;8.43;3.00;;;;;;;10.09;68.58;99932.19;5072471;28;20032;-55
2022/10/09 02:39:10;;;;;;;9.60;3.45;;;;;;;10.05;68.67;99920.84;5072541;28;20032;-59
2022/10/09 02:41:36;;;;;;;7.65;3.10;;;;;;;10.03;68.74;99921.00;5073301;28;20413;-60
2022/10/09 02:44:03;;;;;;;6.38;2.97;;;;;;;10.04;68.65;99919.16;5075203;28;20119;-60
2022/10/09 02:46:28;;;;;;;7.03;2.78;;;;;;;9.89;68.69;99897.97;5076109;28;20035;-60
2022/10/09 02:48:54;;;;;;;9.85;2.88;;;;;;;10.07;68.54;99916.25;5075914;28;20036;-58
2022/10/09 02:51:20;;;;;;;8.43;2.97;;;;;;;10.08;68.49;99919.78;5075570;28;20048;-57
2022/10/09 02:53:45;;;;;;;8.48;3.10;;;;;;;10.06;68.56;99917.22;5076074;28;20363;-59
2022/10/09 02:56:11;;;;;;;8.68;3.10;;;;;;;10.03;68.74;99901.41;5076279;28;20537;-60
2022/10/09 02:58:38;;;;;;;9.82;3.47;;;;;;;10.14;68.48;99909.47;5076501;28;20103;-59
2022/10/09 03:01:04;;;;;;;8.35;2.83;;;;;;;10.16;68.33;99915.53;5075523;28;20042;-59
2022/10/09 03:03:30;;;;;;;7.55;3.00;;;;;;;10.17;68.36;99906.53;5075755;28;20122;-58
2022/10/09 03:06:08;;;;;;;9.95;3.50;;;;;;;10.28;67.82;99900.34;5075902;28;20328;-56
2022/10/09 03:08:35;;;;;;;7.38;2.75;;;;;;;10.19;67.93;99906.41;5075683;28;20040;-60
2022/10/09 03:11:00;;;;;;;8.05;3.25;;;;;;;10.16;68.23;99904.84;5075709;28;20053;-60
2022/10/09 03:13:26;;;;;;;6.78;2.60;;;;;;;10.15;68.00;99892.44;5075429;28;20021;-60
2022/10/09 03:15:51;;;;;;;9.82;3.10;;;;;;;10.26;67.98;99896.94;5075395;28;20024;-59
2022/10/09 03:18:17;;;;;;;10.75;2.65;;;;;;;10.21;67.64;99885.72;5075633;28;20470;-59
2022/10/09 03:20:42;;;;;;;5.68;2.60;;;;;;;10.27;67.36;99885.28;5075669;28;20037;-58
2022/10/09 03:23:07;;;;;;;6.85;2.70;;;;;;;10.26;67.61;99872.88;5075265;28;20044;-60
2022/10/09 03:25:33;;;;;;;6.47;2.60;;;;;;;10.27;67.27;99881.72;5075018;28;20329;-58
2022/10/09 03:27:58;;;;;;;6.70;2.60;;;;;;;10.26;67.44;99885.38;5074132;28;20036;-58
2022/10/09 03:30:24;;;;;;;5.18;2.38;;;;;;;10.25;67.25;99881.88;5075456;28;20031;-59
2022/10/09 03:32:49;;;;;;;6.68;2.78;;;;;;;10.24;67.34;99882.81;5074823;28;20052;-57
2022/10/09 03:35:15;;;;;;;7.53;2.70;;;;;;;10.22;67.55;99875.91;5075195;28;20028;-62
2022/10/09 03:37:40;;;;;;;6.90;2.70;;;;;;;10.24;66.90;99871.28;5075387;28;20459;-59
2022/10/09 03:40:06;;;;;;;6.93;3.15;;;;;;;10.23;67.36;99869.56;5074723;28;20053;-58
2022/10/09 03:42:31;;;;;;;7.53;2.88;;;;;;;10.13;66.65;99856.94;5074217;28;20059;-58
2022/10/09 03:44:59;;;;;;;8.55;2.72;;;;;;;10.29;66.89;99866.41;5074061;28;20051;-59
2022/10/09 03:47:25;;;;;;;6.32;2.40;;;;;;;10.27;66.80;99857.66;5075241;28;20024;-60
2022/10/09 03:49:50;;;;;;;8.50;2.90;;;;;;;10.31;66.61;99856.44;5075444;28;20048;-60
2022/10/09 03:52:16;;;;;;;9.20;3.10;;;;;;;10.32;66.93;99861.66;5074626;28;20044;-61
2022/10/09 03:54:41;;;;;;;8.63;3.15;;;;;;;10.40;66.24;99854.84;5075266;28;20154;-57
2022/10/09 03:57:07;;;;;;;7.20;3.10;;;;;;;10.37;66.66;99864.00;5075018;28;20071;-56
2022/10/09 03:59:32;;;;;;;5.85;2.55;;;;;;;10.39;66.48;99859.38;5074692;28;20071;-60
2022/10/09 04:01:58;;;;;;;8.32;2.88;;;;;;;10.36;66.34;99851.56;5074542;28;20032;-58
2022/10/09 04:04:23;;;;;;;9.45;2.85;;;;;;;10.37;66.65;99857.78;5074673;28;20040;-59
2022/10/09 04:06:49;;;;;;;6.10;2.33;;;;;;;10.38;66.17;99849.63;5057022;28;20059;-58
2022/10/09 04:09:14;;;;;;;5.43;2.92;;;;;;;10.48;65.76;99850.63;5074418;28;20046;-57
2022/10/09 04:11:39;;;;;;;8.02;3.13;;;;;;;10.47;66.05;99848.06;5074894;28;20037;-57
2022/10/09 04:14:05;;;;;;;7.07;2.70;;;;;;;10.52;65.59;99853.06;5075129;28;20024;-59
2022/10/09 04:16:30;;;;;;;6.47;2.42;;;;;;;10.52;65.66;99837.84;5074490;28;20379;-57
2022/10/09 04:18:56;;;;;;;5.32;2.83;;;;;;;10.54;65.28;99837.72;5074443;28;20028;-62
2022/10/09 04:21:21;;;;;;;7.25;2.88;;;;;;;10.62;65.10;99841.47;5074677;28;20029;-61
2022/10/09 04:23:47;;;;;;;9.70;2.78;;;;;;;10.58;65.14;99815.06;5074801;28;20043;-65
2022/10/09 04:26:12;;;;;;;6.07;2.85;;;;;;;10.74;64.79;99830.78;5074529;28;20028;-61
2022/10/09 04:28:38;;;;;;;6.82;2.55;;;;;;;10.81;64.42;99831.09;5073845;28;20171;-62
2022/10/09 04:31:04;;;;;;;11.30;2.72;;;;;;;10.90;64.18;99816.97;5074650;28;20029;-61
2022/10/09 04:33:48;;;;;;;8.25;2.90;;;;;;;11.06;64.26;99822.75;5074130;28;20417;-62
2022/10/09 04:36:13;;;;;;;7.95;3.15;;;;;;;11.07;63.75;99828.97;5074655;28;20066;-61
2022/10/09 04:38:39;;;;;;;5.85;2.92;;;;;;;11.14;63.32;99823.94;5074018;28;20025;-61
2022/10/09 04:41:05;;;;;;;5.88;2.50;;;;;;;11.24;63.22;99827.56;5074517;28;20024;-61
2022/10/09 04:43:32;;;;;;;8.15;2.80;;;;;;;11.36;62.47;99823.00;5074470;28;20112;-64
2022/10/09 04:46:02;;;;;;;8.65;3.38;;;;;;;11.47;62.03;99828.31;5073826;28;20060;-58
2022/10/09 04:48:27;;;;;;;6.57;2.88;;;;;;;11.65;61.40;99825.03;5072872;28;20040;-57
2022/10/09 04:50:53;;;;;;;10.60;2.72;;;;;;;11.96;60.78;99818.88;5073991;28;20383;-59
2022/10/09 04:53:18;;;;;;;7.70;3.30;;;;;;;12.36;59.40;99807.34;5073492;28;20404;-63
2022/10/09 04:55:44;;;;;;;6.70;2.75;;;;;;;12.83;57.92;99811.28;5071266;28;20032;-58
2022/10/09 04:58:11;;;;;;;7.53;3.17;;;;;;;13.21;56.91;99798.84;5073341;28;20371;-54
2022/10/09 05:00:42;;;;;;;10.90;2.88;;;;;;;13.59;55.80;99810.63;5073513;28;20021;-55
2022/10/09 05:03:08;;;;;;;8.43;3.22;;;;;;;13.85;55.02;99801.06;5073672;28;20035;-59
2022/10/09 05:05:34;;;;;;;6.80;3.08;;;;;;;14.27;53.52;99791.72;5072781;28;20032;-56
2022/10/09 05:07:59;;;;;;;7.03;3.13;;;;;;;15.08;51.12;99790.13;5072233;28;20036;-61
2022/10/09 05:10:25;;;;;;;8.27;2.90;;;;;;;16.05;48.72;99798.28;5072761;28;20024;-61
2022/10/09 05:12:50;;;;;;;8.27;3.20;;;;;;;17.02;46.39;99789.00;5072866;28;20090;-64
2022/10/09 05:15:16;;;;;;;9.38;3.05;;;;;;;18.12;43.67;99795.06;5073548;28;20074;-62
2022/10/09 05:17:41;;;;;;;5.70;2.80;;;;;;;19.15;41.10;99783.38;5072962;28;20036;-59
2022/10/09 05:20:07;;;;;;;8.52;3.00;;;;;;;20.10;39.40;99786.59;5073236;28;20040;-61
2022/10/09 05:22:32;;;;;;;4.93;2.55;;;;;;;21.38;36.66;99782.63;5072638;28;20039;-61
2022/10/09 05:24:58;;;;;;;5.60;2.70;;;;;;;22.34;34.13;99767.56;5073371;28;20072;-62
2022/10/09 05:27:23;;;;;;;5.95;2.85;;;;;;;23.41;32.56;99776.28;5072892;28;20093;-59
2022/10/09 05:29:49;;;;;;;6.38;2.95;;;;;;;24.86;30.23;99776.38;5072977;28;20025;-59
2022/10/09 05:32:14;;;;;;;7.95;2.75;;;;;;;25.86;28.52;99780.25;5073051;28;20042;-61
2022/10/09 05:34:39;;;;;;;7.38;2.67;;;;;;;26.47;27.18;99779.63;5072885;28;20131;-60
2022/10/09 05:37:05;;;;;;;6.22;2.97;;;;;;;26.76;26.43;99761.47;5071891;28;20032;-59
2022/10/09 05:39:31;;;;;;;5.55;2.90;;;;;;;27.65;25.42;99781.94;5072889;28;20274;-60
2022/10/09 05:41:57;;;;;;;6.88;2.97;;;;;;;28.42;24.13;99793.00;5072965;28;20434;-61
2022/10/09 05:44:23;;;;;;;7.60;2.85;;;;;;;28.91;23.43;99773.34;5071655;28;20021;-60
2022/10/09 05:46:48;;;;;;;6.18;2.90;;;;;;;29.44;22.65;99794.44;5072959;28;20415;-59
2022/10/09 05:49:14;;;;;;;7.47;2.80;;;;;;;30.01;22.25;99798.91;5072385;28;20032;-60
2022/10/09 05:51:43;;;;;;;10.50;2.95;;;;;;;30.27;21.84;99792.91;5072777;28;20428;-60
2022/10/09 05:54:13;;;;;;;8.40;2.95;;;;;;;29.97;22.25;99791.38;5072570;28;20094;-60
2022/10/09 05:56:39;;;;;;;5.53;3.40;;;;;;;29.25;22.62;99799.28;5072609;28;20043;-60
2022/10/09 05:59:07;;;;;;;8.85;2.78;;;;;;;28.51;23.84;99810.00;5072283;28;20024;-60
2022/10/09 06:01:44;;;;;;;7.75;3.08;;;;;;;27.39;26.07;99802.44;5072124;28;20060;-60
2022/10/09 06:04:21;;;;;;;7.80;3.05;;;;;;;26.01;27.69;99801.84;5072086;28;20032;-60
2022/10/09 06:06:47;;;;;;;8.02;3.03;;;;;;;25.00;27.72;99794.41;5072379;28;20061;-62
2022/10/09 06:09:15;;;;;;;8.27;3.13;;;;;;;24.99;27.49;99797.38;5072868;28;20080;-60
2022/10/09 06:11:41;;;;;;;7.50;3.28;;;;;;;25.07;27.26;99795.19;5071156;28;20086;-60
2022/10/09 06:14:08;;;;;;;5.85;3.17;;;;;;;25.46;27.04;99795.16;5072231;28;20040;-60
2022/10/09 06:16:37;;;;;;;8.25;2.85;;;;;;;25.78;26.55;99797.84;5071933;28;20085;-60
2022/10/09 06:19:04;;;;;;;7.07;2.90;;;;;;;26.22;26.08;99797.84;5072561;28;20041;-60
2022/10/09 06:21:29;;;;;;;7.53;2.75;;;;;;;26.55;25.25;99783.97;5072008;28;20032;-61
2022/10/09 06:24:00;;;;;;;6.88;3.10;;;;;;;26.60;25.45;99784.94;5071508;28;20028;-59
2022/10/09 06:26:30;;;;;;;7.97;2.90;;;;;;;26.05;25.78;99783.03;5072535;28;20095;-60
2022/10/09 06:28:58;;;;;;;6.15;3.00;;;;;;;25.55;26.42;99781.19;5072298;28;20028;-61
2022/10/09 06:31:26;;;;;;;6.45;3.20;;;;;;;25.32;27.20;99782.59;5071814;28;20086;-61
2022/10/09 06:33:52;;;;;;;8.38;2.88;;;;;;;25.45;26.52;99781.66;5072387;28;20040;-59
2022/10/09 06:36:19;;;;;;;9.82;3.40;;;;;;;25.79;26.27;99771.25;5071608;28;20067;-60
2022/10/09 06:38:45;;;;;;;7.65;3.10;;;;;;;26.37;25.80;99780.97;5071700;28;20541;-60
2022/10/09 06:41:24;;;;;;;7.43;3.17;;;;;;;27.04;25.47;99773.81;5072151;28;20094;-60
2022/10/09 06:43:57;;;;;;;7.25;3.38;;;;;;;26.85;25.20;99774.94;5072322;28;20043;-59
2022/10/09 06:46:26;;;;;;;8.10;3.72;;;;;;;27.02;24.77;99761.38;5070845;28;20143;-61
2022/10/09 06:48:51;;;;;;;6.78;3.50;;;;;;;27.57;23.91;99760.31;5071415;28;20458;-61
2022/10/09 06:51:19;;;;;;;5.78;3.08;;;;;;;28.43;23.00;99767.16;5072069;28;20132;-60
2022/10/09 06:53:50;;;;;;;6.50;3.20;;;;;;;29.21;22.59;99754.88;5071823;28;20114;-60
2022/10/09 06:56:17;;;;;;;9.18;3.83;;;;;;;29.29;21.56;99750.84;5071466;28;20044;-60
2022/10/09 06:58:43;;;;;;;4.47;2.90;;;;;;;29.31;21.82;99748.69;5071393;28;20033;-60
2022/10/09 07:01:09;;;;;;;6.63;3.03;;;;;;;29.13;21.49;99753.34;5072050;28;20397;-61
2022/10/09 07:03:36;;;;;;;9.13;3.13;;;;;;;29.02;21.99;99760.59;5071756;28;20032;-60
2022/10/09 07:06:11;;;;;;;4.88;2.90;;;;;;;29.07;22.18;99757.94;5071629;28;20032;-61
2022/10/09 07:08:37;;;;;;;;;;;;;;;30.71;23.17;99758.94;5072426;28;20036;-60
2022/10/09 07:11:11;;;;;;;7.65;3.40;;;;;;;30.18;21.62;99745.56;5057337;28;19917;-60
2022/10/09 07:13:38;;;;;;;8.20;3.13;;;;;;;30.77;19.91;99741.31;5071491;28;20039;-60
2022/10/09 07:16:04;;;;;;;5.72;3.22;;;;;;;31.70;18.94;99739.31;5070792;28;20355;-61
2022/10/09 07:18:32;;;;;;;10.65;3.10;;;;;;;32.67;18.24;99742.84;5071347;28;20044;-62
2022/10/09 07:21:02;;;;;;;6.85;3.35;;;;;;;33.52;17.52;99734.34;5071788;28;20067;-62
2022/10/09 07:23:29;;;;;;;6.75;3.13;;;;;;;33.82;16.72;99727.91;5071071;28;20033;-67
2022/10/09 07:25:54;;;;;;;6.63;2.75;;;;;;;34.13;16.74;99721.47;5071993;28;20036;-61
2022/10/09 07:28:20;;;;;;;6.10;3.10;;;;;;;33.70;16.52;99697.69;5073914;28;20044;-60
2022/10/09 07:30:45;;;;;;;6.47;3.25;;;;;;;32.89;17.36;99708.56;5075108;28;20051;-60
2022/10/09 07:33:10;;;;;;;6.55;3.08;;;;;;;32.85;17.40;99705.47;5074216;28;20403;-61
2022/10/09 07:35:36;;;;;;;6.78;3.30;;;;;;;32.66;17.36;99719.03;5074358;28;20442;-60
2022/10/09 07:38:02;;;;;;;9.52;3.50;;;;;;;31.45;18.82;99685.50;5073817;28;20423;-61
2022/10/09 07:40:28;;;;;;;5.45;3.20;;;;;;;29.77;20.14;99719.06;5075800;28;20427;-64
2022/10/09 07:42:53;;;;;;;8.98;3.08;;;;;;;27.92;22.54;99704.41;5075177;28;20054;-61
2022/10/09 07:45:18;;;;;;;8.60;3.20;;;;;;;26.23;24.74;99708.97;5074860;28;20028;-62
2022/10/09 07:47:44;;;;;;;9.35;3.22;;;;;;;24.61;26.40;99698.56;5075166;28;20036;-64
2022/10/09 07:50:09;;;;;;;9.27;3.63;;;;;;;23.22;28.79;99708.56;5073975;28;20036;-65
2022/10/09 07:52:35;;;;;;;8.82;3.25;;;;;;;22.11;30.72;99713.34;5056975;28;20032;-62
2022/10/09 07:55:00;;;;;;;9.60;3.47;;;;;;;21.07;32.45;99723.91;5057597;28;20024;-63
2022/10/09 07:57:26;;;;;;;7.93;3.38;;;;;;;20.39;34.12;99710.63;5074938;28;20064;-62
2022/10/09 07:59:51;;;;;;;5.80;3.22;;;;;;;19.84;35.01;99714.50;5074920;28;20416;-61
2022/10/09 08:02:17;;;;;;;7.38;3.72;;;;;;;19.41;36.18;99725.13;5074993;28;20032;-62
2022/10/09 08:04:42;;;;;;;9.40;3.22;;;;;;;19.09;36.57;99717.09;5074775;28;20115;-62
2022/10/09 08:07:08;;;;;;;9.32;3.50;;;;;;;18.86;37.27;99714.38;5073989;28;20068;-62
2022/10/09 08:09:33;;;;;;;9.05;3.20;;;;;;;18.75;37.19;99713.75;5073939;28;20083;-61
2022/10/09 08:11:59;;;;;;;11.43;3.65;;;;;;;18.62;37.73;99721.66;5074849;28;20040;-60
2022/10/09 08:14:24;;;;;;;8.93;3.40;;;;;;;18.53;37.92;99707.28;5074566;28;20056;-62
2022/10/09 08:16:49;;;;;;;11.68;3.92;;;;;;;18.54;38.12;99713.53;5074113;28;20616;-61
2022/10/09 08:19:15;;;;;;;9.68;3.67;;;;;;;18.43;38.63;99706.66;5074351;28;20060;-61
2022/10/09 08:21:40;;;;;;;8.15;3.53;;;;;;;18.35;38.83;99719.25;5074452;28;20028;-60
2022/10/09 08:24:06;;;;;;;8.75;4.38;;;;;;;18.38;38.89;99720.78;5074128;28;20079;-61
2022/10/09 08:26:31;;;;;;;8.95;4.05;;;;;;;18.42;38.64;99710.41;5074342;28;20075;-61
2022/10/09 08:29:01;;;;;;;9.52;3.10;;;;;;;18.47;38.48;99710.72;5074769;28;20068;-62
2022/10/09 08:31:28;;;;;;;8.52;3.30;;;;;;;18.47;38.41;99716.16;5073573;28;20024;-60
2022/10/09 08:33:55;;;;;;;8.82;3.20;;;;;;;18.47;38.04;99703.44;5074458;28;20115;-60
2022/10/09 08:36:22;;;;;;;8.77;3.40;;;;;;;18.45;37.92;99704.66;5074250;28;20230;-60
2022/10/09 08:38:48;;;;;;;10.35;4.03;;;;;;;18.39;38.10;99697.22;5072771;28;20037;-61
2022/10/09 08:41:32;;;;;;;7.60;3.28;;;;;;;18.49;38.04;99695.13;5073185;28;20029;-61
2022/10/09 08:44:02;;;;;;;7.05;2.72;;;;;;;18.37;37.89;99702.81;5074198;28;20040;-62
2022/10/09 08:46:51;;;;;;;5.03;2.72;;;;;;;18.40;37.96;99702.47;5074738;28;20039;-61
2022/10/09 08:49:33;;;;;;;13.02;3.95;;;;;;;18.42;38.04;99705.84;5073785;28;20037;-63
2022/10/09 08:52:17;;;;;;;6.57;3.05;;;;;;;18.49;37.60;99693.25;5074151;28;20048;-61
2022/10/09 08:54:43;;;;;;;12.25;3.38;;;;;;;18.43;37.72;99691.25;5073445;28;20040;-61
2022/10/09 08:57:12;;;;;;;5.97;3.13;;;;;;;18.49;37.48;99701.38;5072805;28;20359;-62
2022/10/09 08:59:37;;;;;;;7.25;2.83;;;;;;;18.53;37.49;99690.16;5073718;28;20070;-61
2022/10/09 09:02:26;;;;;;;5.95;3.03;;;;;;;18.71;36.93;99695.31;5073322;28;20024;-65
2022/10/09 09:05:16;;;;;;;7.90;2.88;;;;;;;18.59;37.22;99689.47;5073463;28;20056;-60
2022/10/09 09:07:50;;;;;;;8.65;3.03;;;;;;;18.47;37.70;99687.16;5073030;28;20382;-61
2022/10/09 09:10:24;;;;;;;5.30;2.70;;;;;;;18.33;37.76;99690.66;5073531;28;20024;-61
2022/10/09 09:13:26;;;;;;;8.67;3.27;;;;;;;18.25;38.03;99680.69;5073666;28;20076;-61
2022/10/09 09:16:00;;;;;;;8.98;3.10;;;;;;;18.21;38.01;99679.38;5073369;28;20179;-59
2022/10/09 09:18:44;;;;;;;9.98;3.05;;;;;;;18.21;37.90;99684.78;5072756;28;20181;-61
2022/10/09 09:21:15;;;;;;;7.13;2.90;;;;;;;18.36;37.70;99671.31;5073436;28;20040;-61
2022/10/09 09:23:45;;;;;;;6.07;3.00;;;;;;;18.38;37.26;99682.81;5072724;28;20090;-60
2022/10/09 09:26:15;;;;;;;8.85;3.10;;;;;;;18.38;37.41;99681.97;5073583;28;20350;-60
2022/10/09 09:28:42;;;;;;;6.88;2.65;;;;;;;18.33;37.93;99675.22;5073176;28;20028;-61
2022/10/09 09:31:16;;;;;;;6.50;3.03;;;;;;;18.42;37.72;99684.16;5072733;28;20024;-61
2022/10/09 09:34:08;;;;;;;11.00;3.33;;;;;;;18.54;37.21;99683.72;5073140;28;20028;-62
2022/10/09 09:36:43;;;;;;;8.13;2.80;;;;;;;18.41;36.94;99663.50;5072610;28;20123;-63
2022/10/09 09:39:10;;;;;;;;;;;;;;;18.68;36.72;99665.84;5073061;28;20023;-62
2022/10/09 09:41:35;;;;;;;6.35;2.80;;;;;;;18.42;36.75;99654.34;5072825;28;19917;-64
2022/10/09 09:44:00;;;;;;;6.28;3.00;;;;;;;18.36;36.95;99668.59;5073014;28;20043;-62
2022/10/09 09:46:29;;;;;;;4.43;2.78;;;;;;;18.20;37.14;99648.72;5072679;28;20044;-61
2022/10/09 09:52:19;;;;;;;5.78;2.50;;;;;;;18.42;37.15;99653.47;5071842;28;20324;-61
2022/10/09 09:54:48;;;;;;;6.10;3.13;;;;;;;18.53;36.35;99653.06;5072155;28;20033;-62
2022/10/09 09:57:28;;;;;;;6.60;2.70;;;;;;;18.64;36.27;99649.09;5072537;28;20048;-61
2022/10/09 10:00:05;;;;;;;7.13;2.92;;;;;;;18.60;36.35;99655.91;5072475;28;20034;-64
2022/10/09 10:02:30;;;;;;;7.93;3.00;;;;;;;18.65;36.11;99656.22;5072533;28;20032;-62
2022/10/09 10:05:00;;;;;;;6.35;2.90;;;;;;;18.69;35.87;99675.66;5072204;28;20025;-62
2022/10/09 10:07:37;;;;;;;11.65;3.13;;;;;;;18.72;35.92;99656.34;5072406;28;20382;-60
2022/10/09 10:10:08;;;;;;;6.25;3.10;;;;;;;18.79;35.97;99657.28;5072330;28;20044;-62
2022/10/09 10:12:44;;;;;;;4.50;2.80;;;;;;;18.84;35.98;99649.44;5072205;28;20119;-62
2022/10/09 10:15:36;;;;;;;5.30;2.80;;;;;;;19.11;35.71;99649.09;5071532;28;20113;-62
2022/10/09 10:18:05;;;;;;;4.43;2.78;;;;;;;18.99;34.91;99656.81;5069045;28;20090;-61
2022/10/09 10:20:40;;;;;;;7.47;2.55;;;;;;;18.93;35.34;99656.50;5072318;28;20175;-61
2022/10/09 10:23:39;;;;;;;4.53;2.65;;;;;;;18.94;35.59;99655.47;5072390;28;20028;-63
2022/10/09 10:26:23;;;;;;;8.23;2.90;;;;;;;19.02;35.63;99648.31;5086711;28;20101;-62
2022/10/09 10:29:14;;;;;;;6.28;3.00;;;;;;;19.22;35.54;99648.63;5072397;28;20101;-61
2022/10/09 10:31:54;;;;;;;7.40;2.97;;;;;;;19.27;35.01;99657.03;5072587;28;20032;-62
2022/10/09 10:34:34;;;;;;;8.32;3.35;;;;;;;19.19;34.96;99630.00;5054218;28;20113;-62
2022/10/09 10:37:21;;;;;;;8.13;3.40;;;;;;;19.24;34.81;99633.00;5072056;28;20032;-61
2022/10/09 10:40:05;;;;;;;8.25;3.80;;;;;;;19.03;34.76;99629.13;5071931;28;20036;-61
2022/10/09 10:42:38;;;;;;;6.97;3.45;;;;;;;18.97;35.23;99639.84;5072270;28;20028;-62
2022/10/09 10:45:18;;;;;;;8.52;3.13;;;;;;;19.06;35.10;99641.50;5071936;28;20036;-61
2022/10/09 10:47:52;;;;;;;6.80;3.05;;;;;;;19.06;34.82;99645.06;5072504;28;20090;-61
2022/10/09 10:50:19;;;;;;;6.63;3.20;;;;;;;18.99;34.87;99627.81;5071518;28;20431;-60
2022/10/09 10:52:53;;;;;;;5.45;3.20;;;;;;;19.02;35.04;99634.75;5072256;28;20033;-63
2022/10/09 10:55:45;;;;;;;9.68;2.90;;;;;;;19.15;35.12;99628.69;5071864;28;20113;-63
2022/10/09 10:58:16;;;;;;;6.68;3.22;;;;;;;19.05;34.93;99624.38;5071993;28;20093;-61
2022/10/09 11:00:52;;;;;;;6.00;3.13;;;;;;;19.03;34.82;99618.25;5071691;28;20299;-62
2022/10/09 11:03:17;;;;;;;;;;;;;;;19.41;34.76;99609.25;5074159;28;20037;-62
2022/10/09 11:05:58;;;;;;;;;;;;;;;19.56;34.34;99606.53;5076432;28;19920;-62
2022/10/09 11:08:26;;;;;;;6.15;3.13;;;;;;;19.29;34.09;99608.88;5075390;28;19916;-63
2022/10/09 11:11:54;;;;;;;7.70;2.83;;;;;;;19.38;34.41;99609.59;5075138;28;20420;-60
2022/10/09 11:14:56;;;;;;;5.80;2.95;;;;;;;19.43;34.06;99615.34;5033580;28;20048;-62
2022/10/09 11:17:30;;;;;;;6.63;2.60;;;;;;;19.27;34.14;99605.47;5033881;28;20084;-62
2022/10/09 11:20:07;;;;;;;5.95;2.85;;;;;;;19.30;34.28;99609.69;5033681;28;20136;-62
2022/10/09 11:23:15;;;;;;;8.32;2.53;;;;;;;19.34;33.97;99603.72;5033452;28;20033;-66
2022/10/09 11:25:40;;;;;;;5.57;2.78;;;;;;;19.19;34.11;99613.72;5012611;28;20133;-66
2022/10/09 11:28:12;;;;;;;8.82;2.92;;;;;;;19.17;34.21;99615.78;5014478;28;20133;-67
2022/10/09 11:30:43;;;;;;;4.65;2.50;;;;;;;19.06;34.19;99604.34;5033654;28;20547;-69
2022/10/09 11:33:32;;;;;;;6.70;2.70;;;;;;;19.26;34.32;99609.22;5033550;28;20043;-64
2022/10/09 11:36:12;;;;;;;6.15;3.00;;;;;;;19.32;34.37;99616.63;5033053;28;20452;-63
2022/10/09 11:38:46;;;;;;;6.43;2.47;;;;;;;19.37;34.42;99607.91;5016996;28;20052;-63
2022/10/09 11:41:12;;;;;;;14.82;3.53;;;;;;;19.38;34.39;99612.31;5033377;28;20424;-64
2022/10/09 11:43:55;;;;;;;6.13;3.00;;;;;;;19.46;34.01;99619.53;5033036;28;20026;-63
2022/10/09 11:46:29;;;;;;;8.93;3.42;;;;;;;19.56;34.21;99609.25;5075088;28;20505;-63
2022/10/09 11:49:21;;;;;;;7.15;3.05;;;;;;;19.45;34.24;99623.28;5074680;28;20145;-62
2022/10/09 11:51:56;;;;;;;10.68;3.08;;;;;;;19.25;34.51;99625.72;5074552;28;20067;-63